Time;durP1;ratioP1;P1;durP2;ratioP2;P2;SDS_P1;SDS_P2;PMS_P1;PMS_P2;Temp;Humidity;BMP_temperature;BMP_pressure;BME280_temperature;BME280_humidity;BME280_pressure;Samples;Min_cycle;Max_cycle;Signal;HPM_P1;HPM_P2
2023/08/20 00:02:11;;;;;;;10.88;9.88;;;;;;;;;;5087548;28;20197;-80
2023/08/20 00:04:37;;;;;;;14.43;10.48;;;;;;;;;;5089189;28;20165;-80
2023/08/20 00:07:02;;;;;;;12.55;9.45;;;;;;;;;;5069851;28;20211;-80
2023/08/20 00:09:28;;;;;;;10.70;9.60;;;;;;;;;;5068012;28;20173;-80
2023/08/20 00:11:53;;;;;;;11.68;10.48;;;;;;;;;;5090218;28;20259;-80
2023/08/20 00:14:18;;;;;;;10.82;9.05;;;;;;;;;;5072977;28;20172;-80
2023/08/20 00:16:44;;;;;;;9.57;8.68;;;;;;;;;;5091138;28;20272;-80
2023/08/20 00:19:10;;;;;;;10.85;9.45;;;;;;;;;;5088516;28;20181;-80
2023/08/20 00:21:39;;;;;;;11.23;10.13;;;;;;;;;;5077404;28;20182;-80
2023/08/20 00:24:04;;;;;;;11.57;9.85;;;;;;;;;;5085929;28;20203;-79
2023/08/20 00:26:30;;;;;;;11.15;10.15;;;;;;;;;;5091301;28;20169;-80
2023/08/20 00:28:55;;;;;;;12.93;9.88;;;;;;;;;;5093691;28;20179;-80
2023/08/20 00:31:20;;;;;;;10.90;9.80;;;;;;;;;;5096099;28;20176;-80
2023/08/20 00:33:45;;;;;;;13.48;9.52;;;;;;;;;;5079499;28;20175;-80
2023/08/20 00:36:10;;;;;;;10.90;9.90;;;;;;;;;;5087723;28;20340;-80
2023/08/20 00:38:36;;;;;;;11.05;9.95;;;;;;;;;;5095624;28;20195;-80
2023/08/20 00:41:01;;;;;;;11.10;9.73;;;;;;;;;;5090961;28;20271;-80
2023/08/20 00:43:26;;;;;;;12.75;10.35;;;;;;;;;;5089753;28;20313;-80
2023/08/20 00:45:52;;;;;;;10.60;9.57;;;;;;;;;;5090614;28;20187;-80
2023/08/20 00:48:18;;;;;;;10.32;9.35;;;;;;;;;;5075476;28;20178;-80
2023/08/20 00:50:43;;;;;;;10.40;9.35;;;;;;;;;;5086483;28;20257;-80
2023/08/20 00:53:10;;;;;;;10.57;9.52;;;;;;;;;;5090116;28;20236;-80
2023/08/20 00:55:35;;;;;;;10.55;8.93;;;;;;;;;;5090376;28;20165;-80
2023/08/20 00:58:01;;;;;;;9.60;8.65;;;;;;;;;;5074867;28;20187;-80
2023/08/20 01:00:26;;;;;;;9.68;8.55;;;;;;;;;;5088297;28;20173;-80
2023/08/20 01:02:51;;;;;;;9.40;8.32;;;;;;;;;;5095054;28;20237;-80
2023/08/20 01:05:17;;;;;;;10.88;8.30;;;;;;;;;;5069478;28;20173;-80
2023/08/20 01:07:48;;;;;;;9.45;8.60;;;;;;;;;;5097483;28;20165;-80
2023/08/20 01:10:13;;;;;;;9.20;8.15;;;;;;;;;;5098872;28;20172;-80
2023/08/20 01:12:39;;;;;;;15.80;7.95;;;;;;;;;;5092044;28;20184;-80
2023/08/20 01:15:04;;;;;;;9.18;8.27;;;;;;;;;;5076930;28;20185;-80
2023/08/20 01:17:29;;;;;;;8.43;7.63;;;;;;;;;;5077642;28;20210;-80
2023/08/20 01:19:55;;;;;;;8.75;7.82;;;;;;;;;;5075892;28;20188;-80
2023/08/20 01:22:38;;;;;;;8.60;7.70;;;;;;;;;;5093105;28;20208;-80
2023/08/20 01:25:16;;;;;;;9.77;8.52;;;;;;;;;;5089509;28;20228;-80
2023/08/20 01:28:00;;;;;;;10.93;8.35;;;;;;;;;;5069657;28;20204;-80
2023/08/20 01:30:25;;;;;;;8.77;7.88;;;;;;;;;;5075708;28;20165;-80
2023/08/20 01:32:51;;;;;;;9.25;8.25;;;;;;;;;;5072864;28;20183;-80
2023/08/20 01:35:17;;;;;;;9.05;8.15;;;;;;;;;;5073867;28;20173;-80
2023/08/20 01:37:42;;;;;;;8.85;7.88;;;;;;;;;;5073170;28;20217;-80
2023/08/20 01:40:10;;;;;;;9.27;8.27;;;;;;;;;;5071259;28;20189;-80
2023/08/20 01:42:39;;;;;;;7.85;6.57;;;;;;;;;;5072435;28;20212;-80
2023/08/20 01:45:05;;;;;;;7.55;6.85;;;;;;;;;;5071140;28;20181;-80
2023/08/20 01:47:30;;;;;;;7.28;6.63;;;;;;;;;;5072255;28;20188;-80
2023/08/20 01:49:55;;;;;;;8.48;6.63;;;;;;;;;;5067088;28;20174;-80
2023/08/20 01:52:21;;;;;;;7.55;6.15;;;;;;;;;;5072079;28;20185;-80
2023/08/20 01:54:47;;;;;;;7.70;6.95;;;;;;;;;;5068579;28;20178;-80
2023/08/20 01:57:13;;;;;;;8.25;7.30;;;;;;;;;;5087545;28;20173;-80
2023/08/20 01:59:38;;;;;;;8.60;6.97;;;;;;;;;;5088240;28;20189;-80
2023/08/20 02:02:04;;;;;;;8.90;6.78;;;;;;;;;;5071794;28;20224;-80
2023/08/20 02:04:29;;;;;;;7.60;7.00;;;;;;;;;;5087769;28;20231;-80
2023/08/20 02:06:54;;;;;;;8.48;7.57;;;;;;;;;;5068685;28;20178;-80
2023/08/20 02:09:20;;;;;;;8.25;7.47;;;;;;;;;;5071349;28;20210;-80
2023/08/20 02:11:46;;;;;;;9.45;7.63;;;;;;;;;;5088474;28;20188;-80
2023/08/20 02:14:11;;;;;;;9.88;7.55;;;;;;;;;;5068410;28;20190;-80
2023/08/20 02:16:36;;;;;;;8.73;7.22;;;;;;;;;;5071925;28;20272;-80
2023/08/20 02:19:02;;;;;;;8.50;7.72;;;;;;;;;;5086240;28;20225;-80
2023/08/20 02:21:28;;;;;;;10.50;7.90;;;;;;;;;;5071465;28;20185;-80
2023/08/20 02:23:53;;;;;;;10.00;7.60;;;;;;;;;;5080346;28;20182;-80
2023/08/20 02:26:18;;;;;;;10.85;8.15;;;;;;;;;;5070286;28;20176;-80
2023/08/20 02:28:44;;;;;;;11.00;9.95;;;;;;;;;;5071368;28;20180;-80
2023/08/20 02:31:09;;;;;;;9.45;8.40;;;;;;;;;;5088990;28;20241;-79
2023/08/20 02:33:34;;;;;;;10.98;9.88;;;;;;;;;;5070797;28;20225;-80
2023/08/20 02:36:03;;;;;;;10.95;9.93;;;;;;;;;;5072923;28;20193;-79
2023/08/20 02:38:28;;;;;;;13.60;8.88;;;;;;;;;;5076045;28;20195;-80
2023/08/20 02:40:53;;;;;;;9.85;8.85;;;;;;;;;;5089638;28;20176;-80
2023/08/20 02:43:19;;;;;;;10.18;9.10;;;;;;;;;;5076711;28;20201;-80
2023/08/20 02:45:44;;;;;;;10.65;9.43;;;;;;;;;;5074922;28;20238;-80
2023/08/20 02:48:09;;;;;;;10.80;9.73;;;;;;;;;;5092270;28;20181;-79
2023/08/20 02:50:35;;;;;;;10.68;9.55;;;;;;;;;;5098093;28;20196;-80
2023/08/20 02:53:00;;;;;;;12.35;10.48;;;;;;;;;;5076482;28;20192;-80
2023/08/20 02:55:25;;;;;;;11.65;10.38;;;;;;;;;;5092783;28;20184;-80
2023/08/20 02:57:51;;;;;;;14.60;9.82;;;;;;;;;;5069343;28;20188;-80
2023/08/20 03:00:16;;;;;;;10.83;9.70;;;;;;;;;;5090944;28;20181;-80
2023/08/20 03:02:41;;;;;;;11.95;8.95;;;;;;;;;;5073470;28;20276;-80
2023/08/20 03:05:07;;;;;;;11.27;10.18;;;;;;;;;;5093368;28;20241;-80
2023/08/20 03:07:32;;;;;;;11.38;10.27;;;;;;;;;;5082641;28;20198;-80
2023/08/20 03:09:58;;;;;;;13.43;10.77;;;;;;;;;;5074210;28;20177;-80
2023/08/20 03:12:23;;;;;;;9.03;8.13;;;;;;;;;;5075326;28;20263;-80
2023/08/20 03:14:48;;;;;;;9.77;8.87;;;;;;;;;;5070635;28;20187;-80
2023/08/20 03:17:13;;;;;;;10.35;9.02;;;;;;;;;;5071790;28;20189;-80
2023/08/20 03:19:52;;;;;;;12.93;9.67;;;;;;;;;;5074333;28;20211;-80
2023/08/20 03:22:18;;;;;;;11.83;10.67;;;;;;;;;;5093673;28;20196;-80
2023/08/20 03:24:43;;;;;;;11.33;10.23;;;;;;;;;;5093704;28;20173;-80
2023/08/20 03:27:08;;;;;;;11.35;9.68;;;;;;;;;;5073816;28;20177;-80
2023/08/20 03:29:33;;;;;;;10.80;9.90;;;;;;;;;;5072707;28;20165;-80
2023/08/20 03:31:59;;;;;;;9.60;8.80;;;;;;;;;;5088772;28;20181;-80
2023/08/20 03:34:24;;;;;;;13.00;9.57;;;;;;;;;;5091278;28;20221;-80
2023/08/20 03:36:49;;;;;;;9.33;8.27;;;;;;;;;;5074918;28;20255;-80
2023/08/20 03:39:14;;;;;;;10.23;7.73;;;;;;;;;;5090847;28;20181;-80
2023/08/20 03:41:39;;;;;;;10.97;10.00;;;;;;;;;;5076026;28;20188;-80
2023/08/20 03:44:05;;;;;;;10.20;9.30;;;;;;;;;;5090024;28;20179;-80
2023/08/20 03:46:30;;;;;;;10.07;9.17;;;;;;;;;;5075010;28;20182;-80
2023/08/20 03:48:56;;;;;;;11.00;9.57;;;;;;;;;;5089028;28;20333;-80
2023/08/20 03:51:21;;;;;;;10.37;8.80;;;;;;;;;;5078795;28;20196;-80
2023/08/20 03:53:46;;;;;;;10.40;9.40;;;;;;;;;;5088426;28;20252;-80
2023/08/20 03:56:11;;;;;;;10.07;9.15;;;;;;;;;;5079081;28;20195;-80
2023/08/20 03:58:37;;;;;;;17.40;10.23;;;;;;;;;;5091055;28;20229;-80
2023/08/20 04:01:03;;;;;;;11.20;10.10;;;;;;;;;;5077609;28;20178;-80
2023/08/20 04:03:28;;;;;;;13.93;10.90;;;;;;;;;;5079789;28;20204;-80
2023/08/20 04:05:54;;;;;;;16.63;11.37;;;;;;;;;;5078061;28;20184;-80
2023/08/20 04:08:19;;;;;;;12.47;11.27;;;;;;;;;;5074840;28;20226;-80
2023/08/20 04:10:45;;;;;;;12.60;11.40;;;;;;;;;;5073065;28;20185;-80
2023/08/20 04:13:11;;;;;;;15.00;11.57;;;;;;;;;;5091658;28;20180;-80
2023/08/20 04:15:36;;;;;;;14.03;12.63;;;;;;;;;;5090228;28;20173;-80
2023/08/20 04:18:02;;;;;;;13.25;11.95;;;;;;;;;;5072701;28;20185;-80
2023/08/20 04:20:27;;;;;;;15.63;12.37;;;;;;;;;;5090471;28;20259;-80
2023/08/20 04:22:52;;;;;;;12.40;11.20;;;;;;;;;;5087991;28;20303;-80
2023/08/20 04:25:18;;;;;;;18.63;12.03;;;;;;;;;;5075573;28;20206;-80
2023/08/20 04:27:43;;;;;;;12.63;11.47;;;;;;;;;;5068363;28;20231;-80
2023/08/20 04:30:09;;;;;;;11.43;10.23;;;;;;;;;;5071767;28;20187;-80
2023/08/20 04:32:34;;;;;;;9.80;8.90;;;;;;;;;;5073431;28;20263;-80
2023/08/20 04:34:59;;;;;;;9.60;8.67;;;;;;;;;;5071951;28;20195;-80
2023/08/20 04:37:24;;;;;;;12.57;9.33;;;;;;;;;;5075088;28;20232;-80
2023/08/20 04:39:50;;;;;;;10.50;9.03;;;;;;;;;;5073932;28;20186;-80
2023/08/20 04:42:15;;;;;;;11.43;9.23;;;;;;;;;;5078058;28;20203;-80
2023/08/20 04:44:40;;;;;;;12.37;9.30;;;;;;;;;;5092869;28;20170;-80
2023/08/20 04:47:05;;;;;;;9.20;8.40;;;;;;;;;;5074486;28;20184;-80
2023/08/20 04:49:30;;;;;;;12.97;8.60;;;;;;;;;;5086209;28;20171;-80
2023/08/20 04:51:56;;;;;;;10.63;9.40;;;;;;;;;;5074433;28;20205;-80
2023/08/20 04:54:21;;;;;;;9.23;8.43;;;;;;;;;;5073410;28;20177;-80
2023/08/20 04:56:46;;;;;;;8.70;7.80;;;;;;;;;;5085516;28;20265;-80
2023/08/20 04:59:12;;;;;;;9.27;8.37;;;;;;;;;;5071861;28;20183;-80
2023/08/20 05:01:38;;;;;;;10.23;8.90;;;;;;;;;;5074123;28;20177;-80
2023/08/20 05:04:03;;;;;;;10.63;9.67;;;;;;;;;;5075430;28;20167;-80
2023/08/20 05:06:28;;;;;;;10.57;9.57;;;;;;;;;;5096328;28;20317;-79
2023/08/20 05:08:54;;;;;;;17.30;9.63;;;;;;;;;;5073266;28;20182;-79
2023/08/20 05:11:19;;;;;;;9.87;8.90;;;;;;;;;;5073501;28;20173;-80
2023/08/20 05:13:45;;;;;;;10.00;8.97;;;;;;;;;;5071821;28;20177;-80
2023/08/20 05:16:10;;;;;;;10.83;8.57;;;;;;;;;;5084970;28;20192;-80
2023/08/20 05:18:35;;;;;;;12.05;9.35;;;;;;;;;;5069540;28;20227;-80
2023/08/20 05:21:00;;;;;;;9.90;8.30;;;;;;;;;;5089790;28;20240;-80
2023/08/20 05:23:26;;;;;;;12.00;9.10;;;;;;;;;;5074092;28;20197;-80
2023/08/20 05:25:51;;;;;;;9.50;8.63;;;;;;;;;;5070224;28;20172;-80
2023/08/20 05:28:16;;;;;;;19.45;9.32;;;;;;;;;;5083416;28;20192;-80
2023/08/20 05:30:41;;;;;;;10.30;9.30;;;;;;;;;;5071550;28;20181;-80
2023/08/20 05:33:07;;;;;;;10.90;9.80;;;;;;;;;;5088173;28;20188;-76
2023/08/20 05:35:32;;;;;;;10.80;9.32;;;;;;;;;;5086419;28;20175;-76
2023/08/20 05:37:57;;;;;;;10.48;8.98;;;;;;;;;;5075159;28;20236;-76
2023/08/20 05:40:22;;;;;;;11.40;8.98;;;;;;;;;;5085407;28;20170;-76
2023/08/20 05:42:48;;;;;;;10.43;9.33;;;;;;;;;;5074307;28;20204;-76
2023/08/20 05:45:13;;;;;;;11.77;10.57;;;;;;;;;;5068644;28;20173;-76
2023/08/20 05:47:38;;;;;;;11.20;10.00;;;;;;;;;;5082626;28;20180;-76
2023/08/20 05:50:03;;;;;;;13.25;11.93;;;;;;;;;;5071722;28;20221;-76
2023/08/20 05:52:29;;;;;;;11.90;9.60;;;;;;;;;;5069178;28;20314;-76
2023/08/20 05:54:54;;;;;;;9.90;9.00;;;;;;;;;;5075145;28;20180;-76
2023/08/20 05:57:19;;;;;;;10.30;9.30;;;;;;;;;;5066522;28;20195;-76
2023/08/20 05:59:44;;;;;;;11.93;9.30;;;;;;;;;;5076213;28;20168;-76
2023/08/20 06:02:10;;;;;;;10.10;9.07;;;;;;;;;;5066823;28;20284;-76
2023/08/20 06:04:35;;;;;;;11.17;10.13;;;;;;;;;;5056275;28;20247;-76
2023/08/20 06:07:01;;;;;;;13.45;11.10;;;;;;;;;;5069658;28;20261;-76
2023/08/20 06:09:26;;;;;;;11.80;10.67;;;;;;;;;;5067557;28;20188;-76
2023/08/20 06:11:51;;;;;;;20.80;12.57;;;;;;;;;;5073804;28;20183;-76
2023/08/20 06:14:17;;;;;;;10.95;9.95;;;;;;;;;;5080822;28;20266;-76
2023/08/20 06:16:42;;;;;;;11.15;10.05;;;;;;;;;;5072812;28;20275;-76
2023/08/20 06:19:08;;;;;;;11.50;10.30;;;;;;;;;;5070075;28;20177;-77
2023/08/20 06:21:33;;;;;;;10.23;9.25;;;;;;;;;;5091593;28;20184;-76
2023/08/20 06:24:00;;;;;;;13.30;10.43;;;;;;;;;;5077077;28;20212;-76
2023/08/20 06:26:25;;;;;;;11.55;9.93;;;;;;;;;;5085497;28;20179;-76
2023/08/20 06:28:50;;;;;;;11.52;9.88;;;;;;;;;;5071766;28;20268;-76
2023/08/20 06:31:16;;;;;;;9.25;8.40;;;;;;;;;;5076449;28;20177;-76
2023/08/20 06:33:41;;;;;;;11.30;8.80;;;;;;;;;;5077169;28;20177;-76
2023/08/20 06:36:06;;;;;;;10.40;9.50;;;;;;;;;;5092455;28;20203;-76
2023/08/20 06:38:31;;;;;;;12.10;9.75;;;;;;;;;;5076275;28;20177;-77
2023/08/20 06:40:57;;;;;;;11.23;10.02;;;;;;;;;;5077228;28;20180;-77
2023/08/20 06:43:22;;;;;;;11.25;9.82;;;;;;;;;;5081633;28;20204;-77
2023/08/20 06:45:47;;;;;;;10.85;9.75;;;;;;;;;;5086832;28;20165;-77
2023/08/20 06:48:12;;;;;;;12.38;9.77;;;;;;;;;;5077605;28;20184;-77
2023/08/20 06:50:38;;;;;;;12.48;11.27;;;;;;;;;;5082509;28;20224;-77
2023/08/20 06:53:03;;;;;;;10.70;9.65;;;;;;;;;;5073041;28;20188;-76
2023/08/20 06:55:28;;;;;;;12.15;10.30;;;;;;;;;;5074036;28;20173;-77
2023/08/20 06:57:53;;;;;;;10.27;9.38;;;;;;;;;;5073735;28;20169;-77
2023/08/20 07:00:19;;;;;;;11.07;10.07;;;;;;;;;;5090642;28;20275;-76
2023/08/20 07:02:44;;;;;;;10.02;8.45;;;;;;;;;;5075615;28;20217;-77
2023/08/20 07:05:10;;;;;;;11.52;10.35;;;;;;;;;;5072081;28;20213;-77
2023/08/20 07:07:35;;;;;;;10.95;9.85;;;;;;;;;;5090230;28;20178;-76
2023/08/20 07:10:00;;;;;;;10.93;9.93;;;;;;;;;;5089413;28;20196;-77
2023/08/20 07:12:25;;;;;;;12.73;10.00;;;;;;;;;;5086328;28;20181;-76
2023/08/20 07:14:51;;;;;;;12.25;10.05;;;;;;;;;;5068831;28;20189;-76
2023/08/20 07:17:16;;;;;;;12.13;9.82;;;;;;;;;;5083927;28;20195;-77
2023/08/20 07:19:41;;;;;;;10.60;9.63;;;;;;;;;;5073465;28;20263;-77
2023/08/20 07:22:06;;;;;;;11.38;9.20;;;;;;;;;;5073371;28;20262;-76
2023/08/20 07:24:34;;;;;;;9.32;8.43;;;;;;;;;;5075770;28;20268;-77
2023/08/20 07:27:01;;;;;;;12.43;9.85;;;;;;;;;;5079938;28;20238;-77
2023/08/20 07:29:29;;;;;;;11.50;10.38;;;;;;;;;;5075587;28;20173;-77
2023/08/20 07:31:55;;;;;;;10.77;8.77;;;;;;;;;;5074497;28;20176;-77
2023/08/20 07:34:20;;;;;;;9.45;8.57;;;;;;;;;;5086968;28;20181;-77
2023/08/20 07:36:47;;;;;;;10.10;9.20;;;;;;;;;;5072555;28;20224;-77
2023/08/20 07:39:12;;;;;;;11.13;10.02;;;;;;;;;;5065606;28;20176;-77
2023/08/20 07:41:37;;;;;;;11.00;9.45;;;;;;;;;;5083249;28;20232;-77
2023/08/20 07:44:02;;;;;;;13.20;9.23;;;;;;;;;;5071693;28;20196;-76
2023/08/20 07:46:28;;;;;;;9.95;8.98;;;;;;;;;;5064319;28;20186;-77
2023/08/20 07:48:53;;;;;;;9.65;8.73;;;;;;;;;;5085902;28;20173;-77
2023/08/20 07:51:18;;;;;;;9.50;8.60;;;;;;;;;;5072577;28;20203;-76
2023/08/20 07:53:43;;;;;;;12.00;8.40;;;;;;;;;;5070921;28;20181;-77
2023/08/20 07:56:09;;;;;;;12.77;8.65;;;;;;;;;;5082738;28;20274;-77
2023/08/20 07:58:34;;;;;;;8.90;7.93;;;;;;;;;;5071444;28;20177;-77
2023/08/20 08:00:59;;;;;;;9.10;8.30;;;;;;;;;;5066494;28;20181;-77
2023/08/20 08:03:26;;;;;;;12.55;8.13;;;;;;;;;;5067301;28;20200;-77
2023/08/20 08:05:51;;;;;;;9.88;7.95;;;;;;;;;;5069904;28;20176;-77
2023/08/20 08:08:17;;;;;;;8.77;7.90;;;;;;;;;;5066846;28;20177;-77
2023/08/20 08:10:46;;;;;;;9.55;7.78;;;;;;;;;;5070009;28;20200;-77
2023/08/20 08:13:14;;;;;;;10.60;8.10;;;;;;;;;;5073385;28;20181;-77
2023/08/20 08:15:40;;;;;;;8.52;7.65;;;;;;;;;;5068820;28;20255;-77
2023/08/20 08:18:05;;;;;;;9.70;8.70;;;;;;;;;;5066388;28;20242;-77
2023/08/20 08:20:31;;;;;;;7.72;7.05;;;;;;;;;;5079814;28;20177;-77
2023/08/20 08:22:56;;;;;;;8.05;7.25;;;;;;;;;;5068873;28;20209;-76
2023/08/20 08:25:21;;;;;;;7.72;7.00;;;;;;;;;;5065789;28;20180;-76
2023/08/20 08:27:46;;;;;;;10.38;7.75;;;;;;;;;;5069430;28;20169;-76
2023/08/20 08:30:11;;;;;;;11.48;7.95;;;;;;;;;;5068901;28;20268;-77
2023/08/20 08:32:37;;;;;;;12.18;7.20;;;;;;;;;;5069908;28;20202;-77
2023/08/20 08:35:02;;;;;;;8.75;7.20;;;;;;;;;;5067649;28;20243;-77
2023/08/20 08:37:27;;;;;;;9.20;7.68;;;;;;;;;;5065353;28;20228;-77
2023/08/20 08:39:52;;;;;;;9.13;6.93;;;;;;;;;;5067182;28;20177;-77
2023/08/20 08:42:19;;;;;;;8.43;6.05;;;;;;;;;;5063655;28;20193;-77
2023/08/20 08:44:45;;;;;;;9.63;6.65;;;;;;;;;;5067777;28;20174;-77
2023/08/20 08:47:11;;;;;;;8.15;7.10;;;;;;;;;;5068924;28;20177;-77
2023/08/20 08:49:36;;;;;;;7.40;6.63;;;;;;;;;;5068141;28;20220;-77
2023/08/20 08:52:03;;;;;;;7.35;6.32;;;;;;;;;;5065567;28;20193;-76
2023/08/20 08:54:28;;;;;;;8.90;6.43;;;;;;;;;;5077456;28;20178;-77
2023/08/20 08:56:54;;;;;;;7.43;6.00;;;;;;;;;;5069417;28;20180;-77
2023/08/20 08:59:19;;;;;;;7.15;6.50;;;;;;;;;;5069255;28;20197;-77
2023/08/20 09:01:44;;;;;;;8.50;6.20;;;;;;;;;;5067434;28;20228;-77
2023/08/20 09:04:10;;;;;;;10.38;6.70;;;;;;;;;;5069853;28;20177;-77
2023/08/20 09:06:48;;;;;;;8.32;7.07;;;;;;;;;;5067639;28;20181;-77
2023/08/20 09:09:14;;;;;;;7.57;6.78;;;;;;;;;;5050764;28;20196;-77
2023/08/20 09:11:39;;;;;;;8.13;6.78;;;;;;;;;;5068334;28;20260;-77
2023/08/20 09:14:04;;;;;;;6.80;6.18;;;;;;;;;;5069189;28;20432;-77
2023/08/20 09:16:30;;;;;;;7.93;6.75;;;;;;;;;;5069053;28;20252;-77
2023/08/20 09:18:58;;;;;;;6.75;6.20;;;;;;;;;;5068830;28;20183;-77
2023/08/20 09:21:28;;;;;;;8.07;7.40;;;;;;;;;;5068784;28;20276;-77
2023/08/20 09:23:53;;;;;;;7.97;7.20;;;;;;;;;;5072138;28;20201;-78
2023/08/20 09:26:18;;;;;;;7.35;6.75;;;;;;;;;;5079271;28;20241;-78
2023/08/20 09:28:45;;;;;;;9.25;7.95;;;;;;;;;;5070381;28;20174;-78
2023/08/20 09:31:11;;;;;;;8.50;6.43;;;;;;;;;;5083011;28;20211;-77
2023/08/20 09:33:36;;;;;;;7.65;6.88;;;;;;;;;;5071000;28;20178;-78
2023/08/20 09:36:07;;;;;;;7.50;6.90;;;;;;;;;;5066327;28;20239;-78
2023/08/20 09:38:37;;;;;;;7.32;6.63;;;;;;;;;;5070697;28;20177;-77
2023/08/20 09:41:03;;;;;;;7.32;6.43;;;;;;;;;;5072043;28;20192;-78
2023/08/20 09:43:30;;;;;;;7.65;6.40;;;;;;;;;;5073178;28;20222;-78
2023/08/20 09:45:56;;;;;;;7.40;6.68;;;;;;;;;;5072214;28;20272;-78
2023/08/20 09:48:23;;;;;;;7.80;6.70;;;;;;;;;;5074743;28;20267;-78
2023/08/20 09:50:49;;;;;;;9.77;6.63;;;;;;;;;;5076197;28;20189;-78
2023/08/20 09:53:29;;;;;;;9.57;7.28;;;;;;;;;;5075011;28;20175;-78
2023/08/20 09:55:58;;;;;;;7.68;6.97;;;;;;;;;;5091119;28;20201;-78
2023/08/20 09:58:25;;;;;;;7.95;7.18;;;;;;;;;;5086737;28;20266;-78
2023/08/20 10:00:51;;;;;;;8.00;7.30;;;;;;;;;;5091475;28;20177;-78
2023/08/20 10:03:17;;;;;;;9.93;7.55;;;;;;;;;;5089977;28;20204;-78
2023/08/20 10:05:43;;;;;;;7.53;6.82;;;;;;;;;;5091934;28;20173;-78
2023/08/20 10:08:08;;;;;;;9.48;7.70;;;;;;;;;;5073276;28;20180;-78
2023/08/20 10:10:34;;;;;;;8.10;7.30;;;;;;;;;;5089365;28;20291;-77
2023/08/20 10:12:59;;;;;;;8.05;7.22;;;;;;;;;;5084189;28;20177;-78
2023/08/20 10:15:26;;;;;;;10.25;7.47;;;;;;;;;;5073474;28;20212;-78
2023/08/20 10:17:52;;;;;;;7.78;6.97;;;;;;;;;;5076044;28;20208;-78
2023/08/20 10:20:17;;;;;;;7.97;7.18;;;;;;;;;;5074872;28;20208;-78
2023/08/20 10:22:44;;;;;;;7.10;6.53;;;;;;;;;;5088445;28;20193;-78
2023/08/20 10:25:21;;;;;;;8.45;7.65;;;;;;;;;;5088370;28;20203;-78
2023/08/20 10:27:46;;;;;;;7.63;6.93;;;;;;;;;;5074773;28;20179;-78
2023/08/20 10:30:32;;;;;;;8.00;7.20;;;;;;;;;;5091009;28;20267;-78
2023/08/20 10:32:58;;;;;;;10.38;7.55;;;;;;;;;;5071576;28;20195;-78
2023/08/20 10:35:28;;;;;;;7.68;6.95;;;;;;;;;;5072432;28;20185;-78
2023/08/20 10:38:03;;;;;;;7.03;6.20;;;;;;;;;;5066551;28;20220;-78
2023/08/20 10:40:46;;;;;;;8.75;6.80;;;;;;;;;;5083389;28;20204;-78
2023/08/20 10:43:23;;;;;;;7.75;7.07;;;;;;;;;;5094098;28;20230;-78
2023/08/20 10:46:01;;;;;;;10.57;6.90;;;;;;;;;;5087505;28;20176;-78
2023/08/20 10:48:27;;;;;;;7.47;6.85;;;;;;;;;;5083058;28;20272;-78
2023/08/20 10:50:52;;;;;;;7.22;6.55;;;;;;;;;;5075200;28;20271;-78
2023/08/20 10:53:17;;;;;;;7.88;7.03;;;;;;;;;;5074299;28;20172;-78
2023/08/20 10:55:47;;;;;;;8.70;6.50;;;;;;;;;;5088511;28;20169;-78
2023/08/20 10:58:13;;;;;;;9.60;7.45;;;;;;;;;;5069781;28;20205;-77
2023/08/20 11:00:38;;;;;;;9.93;9.13;;;;;;;;;;5068881;28;20173;-78
2023/08/20 11:03:04;;;;;;;8.75;6.85;;;;;;;;;;5085549;28;20268;-78
2023/08/20 11:05:29;;;;;;;7.95;6.90;;;;;;;;;;5073405;28;20204;-78
2023/08/20 11:07:54;;;;;;;7.93;6.22;;;;;;;;;;5083817;28;20188;-78
2023/08/20 11:10:20;;;;;;;6.88;6.22;;;;;;;;;;5087546;28;20184;-78
2023/08/20 11:12:46;;;;;;;10.65;6.97;;;;;;;;;;5088778;28;20173;-78
2023/08/20 11:15:11;;;;;;;7.10;6.40;;;;;;;;;;5073380;28;20180;-78
2023/08/20 11:17:40;;;;;;;7.65;6.88;;;;;;;;;;5081510;22;20298;-80
2023/08/20 11:20:07;;;;;;;13.90;7.25;;;;;;;;;;5034108;28;20293;-80
2023/08/20 11:22:32;;;;;;;7.50;6.90;;;;;;;;;;5034701;28;20198;-79
2023/08/20 11:24:57;;;;;;;7.97;6.35;;;;;;;;;;5036498;28;20236;-80
2023/08/20 11:27:26;;;;;;;6.45;5.78;;;;;;;;;;5033307;28;20171;-80
2023/08/20 11:29:53;;;;;;;7.75;6.65;;;;;;;;;;5033120;28;20178;-80
2023/08/20 11:32:19;;;;;;;7.03;6.43;;;;;;;;;;5046506;28;20206;-80
2023/08/20 11:34:44;;;;;;;8.27;6.95;;;;;;;;;;5044364;28;20209;-80
2023/08/20 11:37:09;;;;;;;7.18;6.47;;;;;;;;;;5033911;28;20359;-80
2023/08/20 11:39:36;;;;;;;8.93;7.15;;;;;;;;;;5036672;28;20189;-80
2023/08/20 11:42:01;;;;;;;6.80;6.18;;;;;;;;;;5034390;28;20209;-80
2023/08/20 11:44:27;;;;;;;6.75;6.20;;;;;;;;;;5031063;28;20179;-80
2023/08/20 11:46:52;;;;;;;7.60;6.60;;;;;;;;;;5025405;28;20182;-81
2023/08/20 11:49:26;;;;;;;7.35;6.50;;;;;;;;;;5033174;28;20178;-80
2023/08/20 11:51:52;;;;;;;7.55;6.70;;;;;;;;;;5011786;28;20204;-80
2023/08/20 11:54:18;;;;;;;6.80;6.15;;;;;;;;;;5020122;28;20178;-80
2023/08/20 11:56:44;;;;;;;7.60;6.82;;;;;;;;;;5011937;28;20246;-80
2023/08/20 11:59:10;;;;;;;7.25;6.30;;;;;;;;;;5010763;28;20190;-80
2023/08/20 12:01:35;;;;;;;7.07;6.40;;;;;;;;;;5028839;28;20179;-80
2023/08/20 12:04:03;;;;;;;7.82;6.00;;;;;;;;;;5005803;28;20207;-80
2023/08/20 12:06:30;;;;;;;7.57;6.88;;;;;;;;;;5013301;28;20174;-79
2023/08/20 12:08:56;;;;;;;7.40;6.22;;;;;;;;;;5008903;28;20168;-80
2023/08/20 12:11:26;;;;;;;8.00;6.68;;;;;;;;;;5009844;28;20229;-80
2023/08/20 12:13:51;;;;;;;7.05;6.32;;;;;;;;;;5028280;28;20252;-80
2023/08/20 12:16:16;;;;;;;9.57;6.85;;;;;;;;;;5013116;28;20175;-80
2023/08/20 12:18:41;;;;;;;7.35;5.97;;;;;;;;;;5011261;28;20273;-80
2023/08/20 12:21:06;;;;;;;6.78;6.13;;;;;;;;;;5010451;28;20179;-80
2023/08/20 12:23:32;;;;;;;7.68;6.45;;;;;;;;;;5013538;28;20194;-80
2023/08/20 12:25:57;;;;;;;6.93;6.30;;;;;;;;;;5018574;28;20205;-80
2023/08/20 12:28:22;;;;;;;10.25;8.43;;;;;;;;;;5014417;28;20214;-80
2023/08/20 12:30:48;;;;;;;6.78;6.18;;;;;;;;;;5011639;28;20182;-80
2023/08/20 12:33:13;;;;;;;7.20;6.57;;;;;;;;;;5012389;28;20182;-80
2023/08/20 12:35:38;;;;;;;6.85;6.25;;;;;;;;;;5018005;28;20175;-80
2023/08/20 12:38:04;;;;;;;6.50;5.85;;;;;;;;;;5028386;28;20183;-80
2023/08/20 12:40:29;;;;;;;8.20;6.38;;;;;;;;;;5013581;28;20174;-80
2023/08/20 12:42:54;;;;;;;6.97;5.95;;;;;;;;;;5012818;28;20209;-80
2023/08/20 12:45:20;;;;;;;7.10;6.35;;;;;;;;;;5010637;28;20224;-80
2023/08/20 12:47:45;;;;;;;7.20;6.38;;;;;;;;;;5012620;28;20209;-79
2023/08/20 12:50:13;;;;;;;7.32;5.78;;;;;;;;;;5012424;28;20244;-80
2023/08/20 12:52:38;;;;;;;6.95;6.30;;;;;;;;;;5014366;28;20171;-80
2023/08/20 12:55:03;;;;;;;6.55;5.97;;;;;;;;;;5009741;28;20197;-80
2023/08/20 12:57:29;;;;;;;6.75;6.15;;;;;;;;;;5012714;28;20209;-80
2023/08/20 12:59:54;;;;;;;7.03;5.78;;;;;;;;;;5017565;28;20231;-80
2023/08/20 13:02:20;;;;;;;8.23;7.07;;;;;;;;;;5016175;28;20280;-80
2023/08/20 13:04:46;;;;;;;9.75;6.57;;;;;;;;;;5013607;28;20189;-80
2023/08/20 13:07:11;;;;;;;7.13;6.43;;;;;;;;;;5035908;28;20183;-80
2023/08/20 13:09:37;;;;;;;7.60;5.57;;;;;;;;;;5017435;28;20165;-80
2023/08/20 13:12:04;;;;;;;6.93;5.55;;;;;;;;;;5012008;28;20266;-79
2023/08/20 13:14:30;;;;;;;7.28;6.15;;;;;;;;;;5026910;28;20282;-79
2023/08/20 13:16:56;;;;;;;8.00;5.75;;;;;;;;;;5028935;28;20286;-80
2023/08/20 13:19:21;;;;;;;7.57;6.22;;;;;;;;;;5007909;28;20219;-80
2023/08/20 13:21:47;;;;;;;7.38;6.75;;;;;;;;;;5012100;28;20266;-80
2023/08/20 13:24:12;;;;;;;7.47;6.65;;;;;;;;;;5010198;28;20297;-80
2023/08/20 13:26:38;;;;;;;6.97;5.80;;;;;;;;;;5009880;28;20266;-80
2023/08/20 13:29:03;;;;;;;8.85;6.55;;;;;;;;;;5011228;28;20191;-80
2023/08/20 13:31:28;;;;;;;10.65;7.18;;;;;;;;;;5014273;28;20167;-80
2023/08/20 13:33:53;;;;;;;8.70;6.40;;;;;;;;;;5009178;28;20245;-80
2023/08/20 13:36:19;;;;;;;11.30;7.57;;;;;;;;;;5028562;28;20182;-79
2023/08/20 13:38:44;;;;;;;7.47;6.78;;;;;;;;;;5015540;28;20185;-80
2023/08/20 13:41:09;;;;;;;7.00;6.40;;;;;;;;;;5028425;28;20214;-80
2023/08/20 13:43:35;;;;;;;6.85;6.15;;;;;;;;;;5011488;28;20305;-80
2023/08/20 13:46:00;;;;;;;8.10;6.60;;;;;;;;;;5004889;28;20186;-80
2023/08/20 13:48:25;;;;;;;10.15;7.03;;;;;;;;;;5008055;28;20171;-80
2023/08/20 13:50:51;;;;;;;6.93;6.10;;;;;;;;;;5012937;28;20195;-80
2023/08/20 13:53:16;;;;;;;7.05;6.38;;;;;;;;;;5013559;28;20190;-80
2023/08/20 13:55:41;;;;;;;7.43;6.82;;;;;;;;;;5012887;28;20334;-80
2023/08/20 13:58:07;;;;;;;7.57;6.60;;;;;;;;;;5014066;28;20317;-80
2023/08/20 14:00:32;;;;;;;7.15;6.53;;;;;;;;;;5008970;28;20185;-80
2023/08/20 14:02:57;;;;;;;7.90;6.93;;;;;;;;;;5007180;28;20217;-80
2023/08/20 14:05:23;;;;;;;6.95;6.35;;;;;;;;;;5001799;28;20179;-80
2023/08/20 14:07:49;;;;;;;8.38;6.38;;;;;;;;;;5008281;28;20198;-80
2023/08/20 14:10:14;;;;;;;7.57;6.60;;;;;;;;;;5019716;28;20207;-80
2023/08/20 14:12:39;;;;;;;6.75;6.07;;;;;;;;;;5010070;28;20215;-80
2023/08/20 14:15:05;;;;;;;6.72;6.13;;;;;;;;;;5030706;28;20187;-80
2023/08/20 14:17:30;;;;;;;9.60;5.85;;;;;;;;;;5009448;28;20229;-80
2023/08/20 14:19:55;;;;;;;7.43;6.50;;;;;;;;;;5007779;28;20181;-80
2023/08/20 14:22:21;;;;;;;7.70;6.90;;;;;;;;;;5015006;28;20269;-80
2023/08/20 14:24:46;;;;;;;7.10;6.13;;;;;;;;;;5010430;28;20179;-80
2023/08/20 14:27:11;;;;;;;11.07;6.60;;;;;;;;;;5013105;28;20190;-80
2023/08/20 14:29:37;;;;;;;7.32;6.53;;;;;;;;;;5011249;28;20179;-80